Time;durP1;ratioP1;P1;durP2;ratioP2;P2;SDS_P1;SDS_P2;PMS_P1;PMS_P2;Temp;Humidity;BMP_temperature;BMP_pressure;BME280_temperature;BME280_humidity;BME280_pressure;Samples;Min_cycle;Max_cycle;Signal;HPM_P1;HPM_P2
2023/10/12 00:01:59;;;;;;;0.55;0.55;;;13.90;99.90;;;;;;5113159;28;20144;-61
2023/10/12 00:05:17;;;;;;;0.10;0.10;;;13.40;99.90;;;;;;5113297;28;20384;-60
2023/10/12 00:07:33;;;;;;;2.65;0.38;;;13.50;99.90;;;;;;5109955;28;20460;-60
2023/10/12 00:12:47;;;;;;;0.13;0.13;;;11.80;99.90;;;;;;5113098;28;20153;-61
2023/10/12 00:17:51;;;;;;;0.65;0.40;;;11.80;99.90;;;;;;5113337;28;20071;-60
2023/10/12 00:20:21;;;;;;;2.63;1.90;;;11.60;99.90;;;;;;5113200;27;20440;-60
2023/10/12 00:22:47;;;;;;;0.13;0.13;;;12.10;99.90;;;;;;5112902;28;20048;-60
2023/10/12 00:25:16;;;;;;;1.35;0.50;;;12.60;99.90;;;;;;5111884;28;20184;-59
2023/10/12 00:27:47;;;;;;;0.25;0.25;;;11.50;99.90;;;;;;5113183;28;20104;-60
2023/10/12 00:30:14;;;;;;;0.40;0.40;;;12.20;99.90;;;;;;5113123;28;20358;-60
2023/10/12 00:32:41;;;;;;;0.10;0.10;;;11.90;99.90;;;;;;5112942;28;20048;-60
2023/10/12 00:35:14;;;;;;;1.15;0.30;;;11.70;99.90;;;;;;5112662;28;20117;-59
2023/10/12 00:37:41;;;;;;;0.10;0.10;;;11.80;99.90;;;;;;5112824;28;20039;-60
2023/10/12 00:40:29;;;;;;;5.05;1.55;;;11.40;99.90;;;;;;5112488;28;20570;-59
2023/10/12 00:42:56;;;;;;;0.10;0.10;;;11.80;99.90;;;;;;5112681;28;20044;-60
2023/10/12 00:45:31;;;;;;;0.10;0.10;;;11.40;99.90;;;;;;5112900;28;20395;-60
2023/10/12 00:48:06;;;;;;;0.10;0.10;;;11.70;99.90;;;;;;5113008;28;20402;-60
2023/10/12 00:50:32;;;;;;;0.10;0.10;;;11.20;99.90;;;;;;5112950;28;20449;-60
2023/10/12 00:53:14;;;;;;;;;;;12.20;99.90;;;;;;5113446;28;20047;-60
2023/10/12 00:55:41;;;;;;;0.10;0.10;;;11.50;99.90;;;;;;5113109;28;19919;-59
2023/10/12 00:58:10;;;;;;;0.30;0.30;;;11.40;99.90;;;;;;5113109;28;20049;-59
2023/10/12 01:00:43;;;;;;;0.20;0.20;;;11.50;99.90;;;;;;5113096;27;20062;-60
2023/10/12 01:03:31;;;;;;;0.20;0.20;;;11.60;99.90;;;;;;5112892;28;20120;-60
2023/10/12 01:08:42;;;;;;;0.13;0.13;;;11.40;99.90;;;;;;5112639;28;20419;-61
2023/10/12 01:11:20;;;;;;;0.10;0.10;;;11.70;99.90;;;;;;5112438;28;20039;-59
2023/10/12 01:13:48;;;;;;;1.02;0.68;;;12.10;99.90;;;;;;5094235;28;20052;-60
2023/10/12 01:16:23;;;;;;;0.10;0.10;;;11.30;99.90;;;;;;5112360;28;20784;-60
2023/10/12 01:19:05;;;;;;;0.10;0.10;;;12.30;99.90;;;;;;5112491;28;20054;-59
2023/10/12 01:21:35;;;;;;;0.17;0.17;;;11.60;99.90;;;;;;5111253;28;20089;-63
2023/10/12 01:24:13;;;;;;;0.13;0.13;;;11.50;99.90;;;;;;5112238;28;20128;-60
2023/10/12 01:26:44;;;;;;;0.10;0.10;;;11.90;99.90;;;;;;5112385;28;20062;-60
2023/10/12 01:29:22;;;;;;;0.10;0.10;;;12.10;99.90;;;;;;5112306;28;20043;-60
2023/10/12 01:34:39;;;;;;;0.10;0.10;;;11.50;99.90;;;;;;5112337;28;20059;-60
2023/10/12 01:37:20;;;;;;;0.10;0.10;;;11.80;99.90;;;;;;5111942;28;20057;-61
2023/10/12 01:45:40;;;;;;;0.10;0.10;;;11.50;99.90;;;;;;5112257;28;20411;-60
2023/10/12 01:50:33;;;;;;;0.22;0.22;;;12.00;99.90;;;;;;5112243;28;20056;-62
2023/10/12 01:53:00;;;;;;;0.30;0.30;;;11.90;99.90;;;;;;5111752;28;20380;-59
2023/10/12 01:55:30;;;;;;;0.10;0.10;;;11.50;99.90;;;;;;5112052;28;20094;-61
2023/10/12 01:57:56;;;;;;;0.10;0.10;;;11.70;99.90;;;;;;5112025;28;20060;-60
2023/10/12 02:00:28;;;;;;;0.20;0.20;;;11.30;99.90;;;;;;5111720;28;20483;-61
2023/10/12 02:03:12;;;;;;;0.38;0.38;;;12.30;99.90;;;;;;5111827;28;20148;-60
2023/10/12 02:05:46;;;;;;;0.20;0.20;;;12.30;99.90;;;;;;5111719;28;20047;-60
2023/10/12 02:08:16;;;;;;;1.00;0.70;;;11.20;99.90;;;;;;5112120;28;20059;-62
2023/10/12 02:10:54;;;;;;;0.20;0.20;;;11.60;99.90;;;;;;5111061;28;20468;-60
2023/10/12 02:13:21;;;;;;;0.10;0.10;;;12.00;99.90;;;;;;5111984;28;20040;-59
2023/10/12 02:15:50;;;;;;;0.20;0.20;;;11.20;99.90;;;;;;5111732;28;20043;-60
2023/10/12 02:18:19;;;;;;;0.22;0.22;;;11.50;99.90;;;;;;5111850;28;20111;-60
2023/10/12 02:26:35;;;;;;;2.72;0.30;;;12.00;99.90;;;;;;5111513;28;20058;-60
2023/10/12 02:31:34;;;;;;;0.10;0.10;;;12.30;99.90;;;;;;5111588;28;20182;-62
2023/10/12 02:34:01;;;;;;;0.10;0.10;;;11.60;99.90;;;;;;5111593;28;20127;-60
2023/10/12 02:36:26;;;;;;;1.00;0.45;;;11.30;99.90;;;;;;5111502;28;20052;-59
2023/10/12 02:39:01;;;;;;;0.17;0.17;;;11.50;99.90;;;;;;5110940;28;20050;-60
2023/10/12 02:41:26;;;;;;;0.38;0.38;;;12.30;99.90;;;;;;5111644;28;20081;-60
2023/10/12 02:44:11;;;;;;;0.10;0.10;;;11.90;99.90;;;;;;5111691;28;20512;-61
2023/10/12 02:46:41;;;;;;;0.10;0.10;;;11.20;99.90;;;;;;5110554;28;20142;-61
2023/10/12 02:49:06;;;;;;;17.08;0.55;;;11.30;99.90;;;;;;5113284;28;20057;-60
2023/10/12 02:51:39;;;;;;;0.35;0.35;;;11.20;99.90;;;;;;5115164;28;20130;-61
2023/10/12 02:54:07;;;;;;;0.30;0.30;;;11.20;99.90;;;;;;5115433;28;20131;-60
2023/10/12 02:56:35;;;;;;;0.20;0.20;;;11.40;99.90;;;;;;5115045;28;20558;-60
2023/10/12 02:59:08;;;;;;;0.20;0.20;;;11.50;99.90;;;;;;5115146;28;20567;-61
2023/10/12 03:01:38;;;;;;;0.10;0.10;;;11.10;99.90;;;;;;5115126;28;20047;-60
2023/10/12 03:04:10;;;;;;;0.20;0.20;;;11.20;99.90;;;;;;5115003;28;20504;-60
2023/10/12 03:06:58;;;;;;;0.30;0.30;;;11.60;99.90;;;;;;5115226;28;20312;-61
2023/10/12 03:09:36;;;;;;;0.20;0.20;;;11.10;99.90;;;;;;5115100;28;20056;-60
2023/10/12 03:12:02;;;;;;;0.35;0.35;;;11.70;99.90;;;;;;5114799;28;20142;-60
2023/10/12 03:14:28;;;;;;;0.10;0.10;;;10.90;99.90;;;;;;5114699;28;20055;-60
2023/10/12 03:16:53;;;;;;;0.30;0.30;;;11.20;99.90;;;;;;5114941;28;20044;-59
2023/10/12 03:19:28;;;;;;;0.10;0.10;;;12.00;99.90;;;;;;5114883;28;20522;-59
2023/10/12 03:22:03;;;;;;;1.55;0.45;;;11.20;99.90;;;;;;5115109;28;20433;-60
2023/10/12 03:24:44;;;;;;;0.30;0.30;;;11.40;99.90;;;;;;5114872;28;20503;-60
2023/10/12 03:27:11;;;;;;;0.28;0.28;;;11.40;99.90;;;;;;5114859;28;20121;-60
2023/10/12 03:29:43;;;;;;;1.65;0.43;;;11.00;99.90;;;;;;5114670;28;20843;-60
2023/10/12 03:32:12;;;;;;;0.20;0.20;;;11.30;99.90;;;;;;5114533;28;20044;-60
2023/10/12 03:34:53;;;;;;;0.10;0.10;;;10.90;99.90;;;;;;5114454;28;20100;-61
2023/10/12 03:42:55;;;;;;;0.10;0.10;;;11.60;99.90;;;;;;5114396;28;20940;-60
2023/10/12 03:45:26;;;;;;;0.10;0.10;;;11.50;99.90;;;;;;5114520;28;20441;-60
2023/10/12 03:48:03;;;;;;;0.10;0.10;;;11.00;99.90;;;;;;5114520;28;20066;-60
2023/10/12 03:50:51;;;;;;;1.35;0.95;;;10.90;99.90;;;;;;5114251;28;20047;-59
2023/10/12 03:53:26;;;;;;;0.10;0.10;;;11.10;99.90;;;;;;5113942;28;20403;-59
2023/10/12 03:56:00;;;;;;;0.28;0.28;;;11.70;99.90;;;;;;5114012;28;20138;-60
2023/10/12 03:58:27;;;;;;;0.20;0.20;;;10.70;99.90;;;;;;5114292;28;20090;-60
2023/10/12 04:03:40;;;;;;;0.20;0.20;;;10.70;99.90;;;;;;5113772;28;20100;-61
2023/10/12 04:06:23;;;;;;;0.30;0.30;;;10.70;99.90;;;;;;5113831;28;20054;-62
2023/10/12 04:08:54;;;;;;;0.20;0.20;;;11.00;99.90;;;;;;5113994;28;20048;-60
2023/10/12 04:14:43;;;;;;;0.10;0.10;;;10.90;99.90;;;;;;5113758;28;20062;-60
2023/10/12 04:17:06;;;;;;;0.10;0.10;;;11.40;99.90;;;;;;5112176;28;20392;-61
2023/10/12 04:19:33;;;;;;;0.20;0.20;;;10.60;99.90;;;;;;5113855;28;20047;-60
2023/10/12 04:22:15;;;;;;;0.20;0.20;;;10.70;99.90;;;;;;5113467;28;20495;-60
2023/10/12 04:24:46;;;;;;;0.30;0.30;;;10.60;99.90;;;;;;5113536;28;20044;-60
2023/10/12 04:27:38;;;;;;;0.20;0.20;;;10.80;99.90;;;;;;5113397;27;20136;-60
2023/10/12 04:30:32;;;;;;;0.20;0.20;;;10.70;99.90;;;;;;5113560;27;20051;-60
2023/10/12 04:33:11;;;;;;;0.35;0.35;;;10.30;99.90;;;;;;5113103;28;20090;-60
2023/10/12 04:38:22;;;;;;;0.20;0.20;;;10.60;99.90;;;;;;5113088;28;20147;-60
2023/10/12 04:43:38;;;;;;;0.20;0.20;;;10.40;99.90;;;;;;5112932;28;20495;-60
2023/10/12 04:48:41;;;;;;;0.20;0.20;;;11.40;99.90;;;;;;5113044;28;20051;-60
2023/10/12 04:51:21;;;;;;;0.20;0.20;;;10.60;99.90;;;;;;5112970;28;20058;-60
2023/10/12 04:53:57;;;;;;;0.10;0.10;;;10.60;99.90;;;;;;5112929;28;20056;-60
2023/10/12 04:56:26;;;;;;;0.20;0.20;;;10.60;99.90;;;;;;5112840;28;20044;-60
2023/10/12 04:58:59;;;;;;;0.35;0.30;;;10.30;99.90;;;;;;5112637;28;20055;-61
2023/10/12 05:01:40;;;;;;;0.20;0.20;;;10.90;99.90;;;;;;5112874;28;20048;-60
2023/10/12 05:06:35;;;;;;;0.20;0.20;;;10.70;99.90;;;;;;5112580;28;20559;-62
2023/10/12 05:09:10;;;;;;;0.20;0.20;;;10.60;99.90;;;;;;5112536;28;20054;-60
2023/10/12 05:11:36;;;;;;;0.20;0.20;;;10.20;99.90;;;;;;5112293;28;20062;-60
2023/10/12 05:14:11;;;;;;;;;;;10.00;99.90;;;;;;5113086;28;20044;-61
2023/10/12 05:16:42;;;;;;;0.30;0.30;;;10.10;99.90;;;;;;5112609;28;19931;-60
2023/10/12 05:19:10;;;;;;;0.20;0.20;;;10.40;99.90;;;;;;5112484;28;20053;-61
2023/10/12 05:21:36;;;;;;;0.20;0.20;;;10.70;99.90;;;;;;5112235;28;20066;-60
2023/10/12 05:24:01;;;;;;;0.20;0.20;;;10.20;99.90;;;;;;5112637;28;20495;-60
2023/10/12 05:26:27;;;;;;;0.30;0.30;;;10.60;99.90;;;;;;5112183;28;20047;-60
2023/10/12 05:31:39;;;;;;;0.20;0.20;;;10.50;99.90;;;;;;5112488;28;20066;-60
2023/10/12 05:34:52;;;;;;;0.30;0.30;;;11.00;99.90;;;;;;5112153;28;20547;-60
2023/10/12 05:36:54;;;;;;;1.45;0.50;;;10.70;99.90;;;;;;5108850;28;20112;-63
2023/10/12 05:39:22;;;;;;;0.20;0.20;;;10.30;99.90;;;;;;5112286;28;20047;-61
2023/10/12 05:41:47;;;;;;;0.25;0.25;;;10.50;99.90;;;;;;5112391;28;20127;-60
2023/10/12 05:44:15;;;;;;;0.20;0.20;;;10.50;99.90;;;;;;5112077;28;20135;-59
2023/10/12 05:46:44;;;;;;;0.22;0.22;;;10.80;99.90;;;;;;5112031;28;20380;-60
2023/10/12 05:49:13;;;;;;;0.10;0.10;;;10.80;99.90;;;;;;5112125;28;20063;-61
2023/10/12 05:51:43;;;;;;;0.13;0.13;;;11.10;99.90;;;;;;5111960;28;20049;-60
2023/10/12 05:54:09;;;;;;;0.20;0.20;;;10.30;99.90;;;;;;5111969;28;20063;-61
2023/10/12 05:56:36;;;;;;;;;;;10.70;99.90;;;;;;5112341;28;20051;-61
2023/10/12 05:59:03;;;;;;;0.20;0.20;;;10.30;99.90;;;;;;5111792;28;19920;-61
2023/10/12 06:01:32;;;;;;;0.77;0.35;;;10.20;99.90;;;;;;5112213;28;20054;-61
2023/10/12 06:04:08;;;;;;;0.20;0.20;;;10.60;99.90;;;;;;5111523;28;20060;-59
2023/10/12 06:06:43;;;;;;;0.20;0.20;;;10.60;99.90;;;;;;5111932;28;20100;-60
2023/10/12 06:09:12;;;;;;;0.10;0.10;;;10.50;99.90;;;;;;5111779;28;20501;-60
2023/10/12 06:11:48;;;;;;;0.22;0.22;;;10.60;99.90;;;;;;5111533;28;20043;-60
2023/10/12 06:14:15;;;;;;;0.10;0.10;;;10.60;99.90;;;;;;5111930;28;20044;-61
2023/10/12 06:16:41;;;;;;;0.22;0.22;;;10.50;99.90;;;;;;5111770;28;20043;-60
2023/10/12 06:19:34;;;;;;;0.20;0.20;;;10.50;99.90;;;;;;5111505;28;20487;-60
2023/10/12 06:22:13;;;;;;;0.30;0.30;;;10.60;99.90;;;;;;5111445;28;20070;-61
2023/10/12 06:24:44;;;;;;;0.20;0.20;;;10.10;99.90;;;;;;5114555;28;20039;-60
2023/10/12 06:29:48;;;;;;;0.40;0.40;;;9.80;99.90;;;;;;5115819;28;20711;-61
2023/10/12 06:32:18;;;;;;;0.20;0.20;;;10.00;99.90;;;;;;5115524;28;20039;-61
2023/10/12 06:34:45;;;;;;;0.20;0.20;;;9.80;99.90;;;;;;5115756;27;20491;-61
2023/10/12 06:42:39;;;;;;;0.20;0.20;;;10.10;99.90;;;;;;5108825;27;20435;-61
2023/10/12 06:45:08;;;;;;;0.20;0.20;;;10.20;99.90;;;;;;5114850;28;20051;-60
2023/10/12 06:47:44;;;;;;;0.20;0.20;;;10.20;99.90;;;;;;5114302;28;20079;-60
2023/10/12 06:50:15;;;;;;;0.20;0.20;;;9.90;99.90;;;;;;5114619;28;20051;-62
2023/10/12 06:52:42;;;;;;;0.20;0.20;;;9.90;99.90;;;;;;5114550;28;20126;-62
2023/10/12 06:55:09;;;;;;;0.20;0.20;;;10.80;99.90;;;;;;5114519;28;20108;-60
2023/10/12 06:57:43;;;;;;;0.20;0.20;;;10.30;99.90;;;;;;5113488;28;20087;-60
2023/10/12 07:02:35;;;;;;;0.20;0.20;;;10.90;99.90;;;;;;5114073;28;20063;-61
2023/10/12 07:05:04;;;;;;;1.13;1.13;;;10.40;99.90;;;;;;5113920;28;20117;-61
2023/10/12 07:07:40;;;;;;;0.20;0.20;;;10.50;99.90;;;;;;5114067;28;20087;-61
2023/10/12 07:12:37;;;;;;;0.22;0.22;;;10.90;99.90;;;;;;5113383;28;20048;-61
2023/10/12 07:15:11;;;;;;;0.20;0.20;;;11.00;99.90;;;;;;5114230;28;20560;-60
2023/10/12 07:17:36;;;;;;;0.32;0.30;;;10.90;99.90;;;;;;5114109;28;20138;-60
2023/10/12 07:20:05;;;;;;;0.10;0.10;;;11.60;99.90;;;;;;5113646;28;20147;-59
2023/10/12 07:22:37;;;;;;;0.10;0.10;;;10.80;99.90;;;;;;5113860;28;20043;-60
2023/10/12 07:25:04;;;;;;;0.30;0.30;;;11.60;99.90;;;;;;5114254;27;20039;-60
2023/10/12 07:27:48;;;;;;;0.20;0.20;;;11.60;99.90;;;;;;5113034;28;20059;-61
2023/10/12 07:30:22;;;;;;;0.20;0.20;;;11.40;99.90;;;;;;5114164;28;20117;-60
2023/10/12 07:32:59;;;;;;;0.20;0.20;;;11.40;99.90;;;;;;5113811;28;20040;-62
2023/10/12 07:35:31;;;;;;;0.20;0.20;;;11.80;99.90;;;;;;5113149;28;20056;-60
2023/10/12 07:38:02;;;;;;;3.40;0.63;;;11.60;99.90;;;;;;5114131;28;20049;-60
2023/10/12 07:40:41;;;;;;;0.10;0.10;;;11.50;99.90;;;;;;5114015;28;20052;-60
2023/10/12 07:43:10;;;;;;;0.20;0.20;;;11.70;99.90;;;;;;5113208;28;20130;-61
2023/10/12 07:45:38;;;;;;;0.20;0.20;;;12.50;99.90;;;;;;5113308;28;20055;-62
2023/10/12 07:48:09;;;;;;;0.38;0.30;;;12.00;99.90;;;;;;5106154;28;20046;-62
2023/10/12 07:50:47;;;;;;;0.20;0.20;;;12.00;99.90;;;;;;5112733;28;20119;-64
2023/10/12 07:53:24;;;;;;;0.13;0.13;;;12.20;99.90;;;;;;5113160;28;20067;-61
2023/10/12 07:56:06;;;;;;;0.20;0.20;;;12.30;99.90;;;;;;5110429;27;20447;-62
2023/10/12 07:58:31;;;;;;;0.20;0.20;;;12.00;99.90;;;;;;5113321;28;20043;-62
2023/10/12 08:01:21;;;;;;;0.40;0.40;;;12.40;99.90;;;;;;5113100;28;20043;-62
2023/10/12 08:03:50;;;;;;;0.10;0.10;;;12.20;99.90;;;;;;5113095;28;20090;-61
2023/10/12 08:09:05;;;;;;;0.20;0.20;;;12.80;99.90;;;;;;5113527;28;20058;-61
2023/10/12 08:11:34;;;;;;;0.30;0.30;;;13.10;99.90;;;;;;5113296;27;20407;-60
2023/10/12 08:17:24;;;;;;;0.10;0.10;;;13.00;99.90;;;;;;5113138;27;20080;-61
2023/10/12 08:19:38;;;;;;;0.22;0.22;;;12.90;99.90;;;;;;5112797;28;20085;-62
2023/10/12 08:22:09;;;;;;;0.20;0.20;;;12.80;99.90;;;;;;5113375;28;20064;-62
2023/10/12 08:24:39;;;;;;;0.15;0.15;;;13.20;99.90;;;;;;5106979;27;20058;-61
2023/10/12 08:27:06;;;;;;;1.67;0.95;;;13.40;99.90;;;;;;5112546;28;20044;-61
2023/10/12 08:39:38;;;;;;;1.90;0.65;;;13.10;99.90;;;;;;5111619;28;20058;-61
2023/10/12 08:44:49;;;;;;;0.10;0.10;;;13.20;99.90;;;;;;5112433;28;20047;-61
2023/10/12 08:47:26;;;;;;;0.10;0.10;;;13.40;99.90;;;;;;5111112;28;20593;-61
2023/10/12 08:52:29;;;;;;;0.28;0.28;;;13.10;99.90;;;;;;5111886;27;20094;-61
2023/10/12 08:54:58;;;;;;;0.20;0.20;;;13.40;99.90;;;;;;5111529;28;20081;-62
2023/10/12 08:57:37;;;;;;;0.10;0.10;;;13.10;99.90;;;;;;5112279;28;20044;-61
2023/10/12 09:00:25;;;;;;;0.20;0.20;;;13.90;99.90;;;;;;5111578;28;20043;-61
2023/10/12 09:02:59;;;;;;;;;;;13.40;99.90;;;;;;5110854;28;20144;-64
2023/10/12 09:05:30;;;;;;;0.20;0.20;;;14.00;99.90;;;;;;5110941;28;20046;-63
2023/10/12 09:10:54;;;;;;;0.20;0.20;;;13.00;99.90;;;;;;5112886;28;20524;-61
2023/10/12 09:13:22;;;;;;;0.10;0.10;;;13.70;99.90;;;;;;5112779;28;20526;-61
2023/10/12 09:15:55;;;;;;;0.10;0.10;;;13.20;99.90;;;;;;5112759;28;20043;-61
2023/10/12 09:18:29;;;;;;;0.10;0.10;;;13.10;99.90;;;;;;5112662;28;20043;-60
2023/10/12 09:31:13;;;;;;;0.10;0.10;;;13.00;99.90;;;;;;5112616;28;20044;-61
2023/10/12 09:36:26;;;;;;;0.10;0.10;;;13.50;99.90;;;;;;5091326;28;20067;-62
2023/10/12 09:38:56;;;;;;;0.10;0.10;;;13.20;99.90;;;;;;5110608;28;20047;-62
2023/10/12 09:41:36;;;;;;;0.10;0.10;;;13.20;99.90;;;;;;5111380;28;20111;-61
2023/10/12 09:44:05;;;;;;;0.10;0.10;;;13.00;99.90;;;;;;5101841;28;20043;-61
2023/10/12 09:46:34;;;;;;;0.20;0.20;;;13.60;99.90;;;;;;5111138;28;20039;-61
2023/10/12 09:49:06;;;;;;;0.10;0.10;;;13.70;99.90;;;;;;5111292;28;20078;-62
2023/10/12 09:51:47;;;;;;;0.10;0.10;;;13.90;99.90;;;;;;5110032;28;20057;-61
2023/10/12 09:54:27;;;;;;;0.10;0.10;;;13.70;99.90;;;;;;5108090;28;20127;-61
2023/10/12 09:56:58;;;;;;;0.10;0.10;;;14.10;99.90;;;;;;5108899;28;20051;-61
2023/10/12 09:59:29;;;;;;;0.10;0.10;;;13.90;99.90;;;;;;5110745;28;20054;-63
2023/10/12 10:02:27;;;;;;;0.10;0.10;;;14.10;99.90;;;;;;5110650;28;20046;-61
2023/10/12 10:04:46;;;;;;;0.10;0.10;;;14.20;99.90;;;;;;5110732;28;20113;-61
2023/10/12 10:07:25;;;;;;;0.20;0.20;;;13.70;99.90;;;;;;5110148;28;20051;-63
2023/10/12 10:09:56;;;;;;;0.65;0.20;;;14.20;99.90;;;;;;5111285;28;20039;-63
2023/10/12 10:12:24;;;;;;;0.30;0.30;;;14.40;99.90;;;;;;5111106;28;20047;-62
2023/10/12 10:14:53;;;;;;;0.10;0.10;;;14.60;99.90;;;;;;5105950;28;20055;-61
2023/10/12 10:17:36;;;;;;;0.10;0.10;;;14.20;99.90;;;;;;5092642;28;20036;-61
2023/10/12 10:22:58;;;;;;;0.30;0.30;;;14.10;99.90;;;;;;5106609;28;20064;-63
2023/10/12 10:25:34;;;;;;;0.20;0.20;;;14.20;99.90;;;;;;5110184;28;20050;-61
2023/10/12 10:28:18;;;;;;;0.20;0.20;;;14.50;99.90;;;;;;5111317;28;20051;-61
2023/10/12 10:30:50;;;;;;;0.10;0.10;;;14.50;99.90;;;;;;5111291;28;20047;-62
2023/10/12 10:33:23;;;;;;;0.20;0.20;;;14.20;99.90;;;;;;5107782;28;20139;-63
2023/10/12 10:35:57;;;;;;;0.40;0.40;;;14.10;99.90;;;;;;5109651;28;20146;-61
2023/10/12 10:38:30;;;;;;;0.10;0.10;;;14.50;99.90;;;;;;5108799;28;20047;-61
2023/10/12 10:41:05;;;;;;;0.10;0.10;;;14.90;99.90;;;;;;5111577;28;20047;-61
2023/10/12 10:43:39;;;;;;;0.03;0.03;;;14.80;99.90;;;;;;5111627;28;20039;-63
2023/10/12 10:46:06;;;;;;;0.10;0.10;;;14.70;99.90;;;;;;5111492;28;20054;-62
2023/10/12 10:48:36;;;;;;;0.10;0.10;;;14.90;99.90;;;;;;5111439;28;20059;-62
2023/10/12 10:51:07;;;;;;;0.13;0.13;;;15.10;99.90;;;;;;5110967;28;20419;-62
2023/10/12 10:53:37;;;;;;;0.05;0.05;;;14.90;99.90;;;;;;5111288;28;20483;-62
2023/10/12 10:56:13;;;;;;;0.10;0.10;;;15.10;99.90;;;;;;5111126;28;20051;-62
2023/10/12 10:58:40;;;;;;;0.10;0.10;;;14.70;99.90;;;;;;5111346;28;20126;-62
2023/10/12 11:01:09;;;;;;;1.65;1.55;;;15.10;99.90;;;;;;5111225;28;20058;-63
2023/10/12 11:03:35;;;;;;;1.55;1.45;;;15.50;99.90;;;;;;5111260;28;20047;-61
2023/10/12 11:06:01;;;;;;;0.10;0.10;;;15.40;99.90;;;;;;5111402;28;20079;-62
2023/10/12 11:08:27;;;;;;;0.10;0.10;;;15.50;99.90;;;;;;5111358;28;20066;-62
2023/10/12 11:13:34;;;;;;;0.25;0.20;;;15.90;99.90;;;;;;5114952;28;20058;-63
2023/10/12 11:16:20;;;;;;;0.10;0.10;;;15.70;99.90;;;;;;5114835;28;20039;-62
2023/10/12 11:18:47;;;;;;;0.10;0.10;;;15.50;99.90;;;;;;5115155;28;20054;-62
2023/10/12 11:21:17;;;;;;;0.22;0.22;;;15.50;99.90;;;;;;5114872;28;20059;-62
2023/10/12 11:23:45;;;;;;;0.40;0.40;;;15.50;99.90;;;;;;5114766;28;20757;-61
2023/10/12 11:26:17;;;;;;;0.73;0.20;;;15.60;99.90;;;;;;5114989;28;20039;-61
2023/10/12 11:29:00;;;;;;;0.10;0.10;;;15.60;99.90;;;;;;5114758;28;20112;-62
2023/10/12 11:31:32;;;;;;;0.38;0.38;;;15.80;99.90;;;;;;5115051;28;20050;-62
2023/10/12 11:33:59;;;;;;;0.45;0.35;;;15.50;99.90;;;;;;5114971;28;20083;-61
2023/10/12 11:36:25;;;;;;;0.05;0.05;;;15.90;99.90;;;;;;5114775;28;20055;-62
2023/10/12 11:39:10;;;;;;;0.25;0.25;;;15.60;99.90;;;;;;5114643;28;20048;-62
2023/10/12 11:41:36;;;;;;;0.20;0.20;;;15.60;99.90;;;;;;5114654;28;20047;-62
2023/10/12 11:44:05;;;;;;;0.10;0.10;;;15.50;99.90;;;;;;5114519;28;20046;-62
2023/10/12 11:46:44;;;;;;;0.10;0.10;;;15.60;99.90;;;;;;5114212;28;20055;-62
2023/10/12 11:49:13;;;;;;;0.10;0.10;;;15.50;99.90;;;;;;5114296;28;20722;-62
2023/10/12 11:51:50;;;;;;;0.10;0.10;;;16.00;99.90;;;;;;5114077;28;20188;-61
2023/10/12 11:54:32;;;;;;;0.25;0.25;;;16.20;99.90;;;;;;5114341;27;20059;-63
2023/10/12 11:56:58;;;;;;;0.10;0.10;;;15.70;99.90;;;;;;5114142;28;20052;-61
2023/10/12 11:59:31;;;;;;;0.10;0.10;;;15.90;99.90;;;;;;5113878;28;20419;-62
2023/10/12 12:02:03;;;;;;;1.02;0.65;;;16.30;99.90;;;;;;5113809;28;20168;-63
2023/10/12 12:04:41;;;;;;;2.85;0.38;;;15.80;99.90;;;;;;5114220;28;20647;-63
2023/10/12 12:07:10;;;;;;;0.10;0.10;;;16.40;99.90;;;;;;5113961;28;20106;-63
2023/10/12 12:09:48;;;;;;;0.10;0.10;;;16.30;99.90;;;;;;5109205;28;20079;-68
2023/10/12 12:12:16;;;;;;;0.10;0.10;;;16.00;99.90;;;;;;5106868;28;20059;-62
2023/10/12 12:14:46;;;;;;;0.30;0.30;;;16.00;99.90;;;;;;5113252;28;20079;-62
2023/10/12 12:17:15;;;;;;;0.10;0.10;;;16.30;99.90;;;;;;5112997;28;20047;-62
2023/10/12 12:19:41;;;;;;;0.10;0.10;;;16.30;99.90;;;;;;5097810;28;20040;-62
2023/10/12 12:22:13;;;;;;;0.05;0.05;;;15.70;99.90;;;;;;5092397;28;20048;-62
2023/10/12 12:24:44;;;;;;;0.00;0.00;;;16.10;99.90;;;;;;5096053;28;20050;-62
2023/10/12 12:29:55;;;;;;;0.20;0.20;;;16.20;99.90;;;;;;5113623;28;20184;-62
2023/10/12 12:32:20;;;;;;;;;;;16.00;99.90;;;;;;5113831;28;20130;-62
2023/10/12 12:34:51;;;;;;;0.00;0.00;;;16.30;99.90;;;;;;5113452;28;19923;-62
2023/10/12 12:37:17;;;;;;;0.10;0.10;;;16.00;99.90;;;;;;5111015;28;20063;-62
2023/10/12 12:39:43;;;;;;;0.10;0.10;;;16.20;99.90;;;;;;5112196;28;20142;-62
2023/10/12 12:42:10;;;;;;;0.10;0.10;;;15.70;99.90;;;;;;5113009;28;20040;-63
2023/10/12 12:44:36;;;;;;;0.10;0.10;;;15.60;99.90;;;;;;5112812;28;20051;-62
2023/10/12 12:47:02;;;;;;;0.20;0.20;;;15.90;99.90;;;;;;5112828;28;20122;-62
2023/10/12 12:49:29;;;;;;;0.00;0.00;;;15.80;99.90;;;;;;5112558;28;20510;-62
2023/10/12 12:51:57;;;;;;;0.00;0.00;;;15.90;99.90;;;;;;5112567;28;20051;-62
2023/10/12 12:54:24;;;;;;;0.10;0.10;;;15.70;99.90;;;;;;5112416;28;20055;-64
2023/10/12 12:56:53;;;;;;;0.80;0.38;;;16.00;99.90;;;;;;5112546;28;20123;-62
2023/10/12 12:59:24;;;;;;;0.10;0.10;;;15.90;99.90;;;;;;5112510;28;20051;-63
2023/10/12 13:01:50;;;;;;;0.10;0.10;;;16.00;99.90;;;;;;5112355;28;20055;-63
2023/10/12 13:04:17;;;;;;;0.10;0.10;;;16.10;99.90;;;;;;5112219;27;20066;-63
2023/10/12 13:06:43;;;;;;;0.17;0.17;;;15.90;99.90;;;;;;5112120;28;20056;-62
2023/10/12 13:11:53;;;;;;;0.10;0.10;;;16.00;99.90;;;;;;5112116;27;20047;-62
2023/10/12 13:14:19;;;;;;;0.00;0.00;;;15.70;99.90;;;;;;5112112;28;20131;-62
2023/10/12 13:16:45;;;;;;;0.10;0.10;;;15.80;99.90;;;;;;5112072;28;20471;-63
2023/10/12 13:19:11;;;;;;;;;;;15.80;99.90;;;;;;5112542;28;20048;-61
2023/10/12 13:21:41;;;;;;;0.00;0.00;;;16.10;99.90;;;;;;5110933;28;19945;-62
2023/10/12 13:24:08;;;;;;;0.10;0.10;;;15.80;99.90;;;;;;5111079;28;20392;-61
2023/10/12 13:26:34;;;;;;;0.30;0.10;;;16.00;99.90;;;;;;5111843;28;20492;-64
2023/10/12 13:29:01;;;;;;;1.35;0.20;;;15.50;99.90;;;;;;5110969;28;20149;-61
2023/10/12 13:31:28;;;;;;;0.20;0.20;;;15.90;99.90;;;;;;5111703;28;20055;-62
2023/10/12 13:33:54;;;;;;;0.28;0.28;;;15.90;99.90;;;;;;5108497;28;20043;-62
2023/10/12 13:36:20;;;;;;;0.30;0.30;;;15.70;99.90;;;;;;5110326;28;20051;-63
2023/10/12 13:38:46;;;;;;;0.10;0.10;;;16.00;99.90;;;;;;5105207;28;20109;-62
2023/10/12 13:41:12;;;;;;;1.48;1.38;;;16.00;99.90;;;;;;5109121;28;20676;-61
2023/10/12 13:43:38;;;;;;;;;;;16.00;99.90;;;;;;5108199;28;20448;-61
2023/10/12 13:46:07;;;;;;;0.30;0.30;;;16.00;99.90;;;;;;5111457;28;19924;-62
2023/10/12 13:48:37;;;;;;;0.20;0.20;;;15.70;99.90;;;;;;5111232;28;20142;-61
2023/10/12 13:51:23;;;;;;;0.00;0.00;;;16.10;99.90;;;;;;5111544;28;20036;-61
2023/10/12 13:53:52;;;;;;;0.00;0.00;;;15.90;99.90;;;;;;5110867;28;20453;-61
2023/10/12 13:56:23;;;;;;;0.10;0.10;;;15.80;99.90;;;;;;5110356;28;20039;-62
2023/10/12 13:58:52;;;;;;;1.35;1.05;;;15.50;99.90;;;;;;5110852;28;20047;-61
2023/10/12 14:01:20;;;;;;;0.20;0.20;;;15.40;99.90;;;;;;5110938;28;20592;-61
2023/10/12 14:03:53;;;;;;;0.10;0.10;;;16.10;99.90;;;;;;5111084;28;20102;-61
2023/10/12 14:06:19;;;;;;;0.20;0.20;;;15.30;99.90;;;;;;5111172;28;20048;-63
2023/10/12 14:08:46;;;;;;;0.00;0.00;;;15.30;99.90;;;;;;5110870;28;20431;-62
2023/10/12 14:11:16;;;;;;;0.10;0.10;;;15.90;99.90;;;;;;5110809;28;20048;-61
2023/10/12 14:13:43;;;;;;;0.05;0.05;;;15.60;99.90;;;;;;5110609;28;20043;-62
2023/10/12 14:16:10;;;;;;;5.32;0.22;;;15.40;99.90;;;;;;5110722;28;20051;-64
2023/10/12 14:18:36;;;;;;;0.13;0.13;;;15.80;99.90;;;;;;5111368;28;20517;-65
2023/10/12 14:21:02;;;;;;;0.20;0.20;;;15.60;99.90;;;;;;5111081;28;20048;-62
2023/10/12 14:23:29;;;;;;;0.10;0.10;;;15.20;99.90;;;;;;5111289;28;20059;-62
2023/10/12 14:25:57;;;;;;;0.60;0.52;;;15.40;99.90;;;;;;5111012;28;20048;-62
2023/10/12 14:28:31;;;;;;;0.10;0.10;;;15.40;99.90;;;;;;5111106;28;20180;-62
2023/10/12 14:30:57;;;;;;;0.50;0.50;;;15.50;99.90;;;;;;5111195;28;20051;-62
2023/10/12 14:33:22;;;;;;;0.10;0.10;;;15.10;99.90;;;;;;5110995;28;20040;-62
2023/10/12 14:35:48;;;;;;;0.08;0.08;;;15.30;99.90;;;;;;5110598;28;20056;-62
2023/10/12 14:38:14;;;;;;;0.88;0.40;;;15.30;99.90;;;;;;5111072;28;20372;-63
2023/10/12 14:40:42;;;;;;;0.43;0.43;;;15.60;99.90;;;;;;5110884;28;20058;-64
2023/10/12 14:43:12;;;;;;;0.20;0.20;;;15.20;99.90;;;;;;5111068;28;20048;-62
2023/10/12 14:45:49;;;;;;;0.15;0.15;;;15.30;99.90;;;;;;5113945;28;20039;-62
2023/10/12 14:48:17;;;;;;;0.98;0.20;;;15.20;99.90;;;;;;5115014;28;20043;-63
2023/10/12 14:50:49;;;;;;;0.10;0.10;;;15.00;99.90;;;;;;5115015;28;20043;-62
2023/10/12 14:53:16;;;;;;;0.70;0.10;;;15.10;99.90;;;;;;5115045;28;20126;-62
2023/10/12 14:55:48;;;;;;;0.10;0.10;;;14.90;99.90;;;;;;5115224;28;20547;-62
2023/10/12 14:58:16;;;;;;;0.10;0.10;;;15.00;99.90;;;;;;5115182;28;20040;-62
2023/10/12 15:00:45;;;;;;;0.80;0.70;;;14.90;99.90;;;;;;5114713;28;20052;-63
2023/10/12 15:03:11;;;;;;;0.10;0.10;;;15.10;99.90;;;;;;5114409;27;20436;-62